createdAt,value
2018-09-04T00:04:39.117Z,93.90
2018-09-04T00:09:41.339Z,94.00
2018-09-04T00:14:43.646Z,93.60
2018-09-04T00:19:46.993Z,93.90
2018-09-04T00:24:49.406Z,96.20
2018-09-04T00:29:51.569Z,95.80
2018-09-04T00:34:53.709Z,96.30
2018-09-04T00:39:56.343Z,96.10
2018-09-04T00:44:58.685Z,96.80
2018-09-04T00:50:03.274Z,97.10
2018-09-04T00:55:05.727Z,99.90
2018-09-04T01:00:08.169Z,99.90
2018-09-04T01:05:10.453Z,99.90
2018-09-04T01:10:12.639Z,99.90
2018-09-04T01:15:14.778Z,99.90
2018-09-04T01:20:17.662Z,99.90
2018-09-04T01:25:20.022Z,99.90
2018-09-04T01:30:22.219Z,99.90
2018-09-04T01:35:26.690Z,99.90
2018-09-04T01:40:29.436Z,99.90
2018-09-04T01:45:32.930Z,99.90
2018-09-04T01:50:37.914Z,99.90
2018-09-04T01:55:42.549Z,99.90
2018-09-04T02:00:44.917Z,99.90
2018-09-04T02:05:50.334Z,99.90
2018-09-04T02:10:52.823Z,99.90
2018-09-04T02:15:57.051Z,99.90
2018-09-04T02:20:59.428Z,99.90
2018-09-04T02:26:01.589Z,99.90
2018-09-04T02:31:03.745Z,99.90
2018-09-04T02:36:05.900Z,99.90
2018-09-04T02:41:09.800Z,99.90
2018-09-04T02:46:12.089Z,99.90
2018-09-04T02:51:15.885Z,99.90
2018-09-04T02:56:18.306Z,99.90
2018-09-04T03:01:22.300Z,99.90
2018-09-04T03:06:24.585Z,99.90
2018-09-04T03:11:31.493Z,99.90
2018-09-04T03:16:36.693Z,99.90
2018-09-04T03:21:39.668Z,99.90
2018-09-04T03:26:42.173Z,99.90
2018-09-04T03:31:44.329Z,99.90
2018-09-04T03:36:46.512Z,99.90
2018-09-04T03:41:48.657Z,99.90
2018-09-04T03:46:53.937Z,99.90
2018-09-04T03:51:56.204Z,99.90
2018-09-04T03:56:59.859Z,99.90
2018-09-04T04:02:02.206Z,99.90
2018-09-04T04:07:04.390Z,99.90
2018-09-04T04:12:06.628Z,99.90
2018-09-04T04:17:08.854Z,99.90
2018-09-04T04:22:10.986Z,99.90
2018-09-04T04:27:13.125Z,99.90
2018-09-04T04:32:15.326Z,99.90
2018-09-04T04:37:20.414Z,99.90
2018-09-04T04:42:22.838Z,99.90
2018-09-04T04:47:31.706Z,99.90
2018-09-04T04:52:34.769Z,99.90
2018-09-04T04:57:38.188Z,99.90
2018-09-04T05:02:40.538Z,99.90
2018-09-04T05:07:42.682Z,99.90
2018-09-04T05:12:45.190Z,99.90
2018-09-04T05:17:47.951Z,99.90
2018-09-04T05:22:50.374Z,99.90
2018-09-04T05:27:52.454Z,99.90
2018-09-04T05:33:00.802Z,99.90
2018-09-04T05:38:04.093Z,99.90
2018-09-04T05:43:11.534Z,99.90
2018-09-04T05:48:17.650Z,99.90
2018-09-04T05:53:21.393Z,99.90
2018-09-04T05:58:24.424Z,99.90
2018-09-04T06:03:26.706Z,99.90
2018-09-04T06:08:28.887Z,99.90
2018-09-04T06:13:31.165Z,99.90
2018-09-04T06:18:33.272Z,99.90
2018-09-04T06:23:35.431Z,99.90
2018-09-04T06:28:37.611Z,99.90
2018-09-04T06:33:39.768Z,99.90
2018-09-04T06:38:43.522Z,99.90
2018-09-04T06:43:46.026Z,99.90
2018-09-04T06:48:48.159Z,99.90
2018-09-04T06:53:52.522Z,98.10
2018-09-04T06:58:56.909Z,95.20
2018-09-04T07:03:59.058Z,94.40
2018-09-04T07:09:04.265Z,86.40
2018-09-04T07:14:07.734Z,81.70
2018-09-04T07:19:15.601Z,81.20
2018-09-04T07:24:18.705Z,73.10
2018-09-04T07:29:22.343Z,73.00
2018-09-04T07:34:24.545Z,72.40
2018-09-04T07:39:26.701Z,69.40
2018-09-04T07:44:29.443Z,66.70
2018-09-04T07:49:31.614Z,66.10
2018-09-04T07:54:34.453Z,66.70
2018-09-04T07:59:36.841Z,67.10
2018-09-04T08:04:39.635Z,69.60
2018-09-04T08:09:41.894Z,70.60
2018-09-04T08:14:44.094Z,68.70
2018-09-04T08:19:46.354Z,68.40
2018-09-04T08:24:48.685Z,58.80
2018-09-04T08:29:50.829Z,59.40
2018-09-04T08:34:52.966Z,59.30
2018-09-04T08:39:55.270Z,61.00
2018-09-04T08:44:57.514Z,56.70
2018-09-04T08:50:01.540Z,55.00
2018-09-04T08:55:04.290Z,57.00
2018-09-04T09:00:06.471Z,54.10
2018-09-04T09:05:08.630Z,54.00
2018-09-04T09:10:11.995Z,50.60
2018-09-04T09:15:14.502Z,49.20
2018-09-04T09:20:16.728Z,48.00
2018-09-04T09:25:18.894Z,52.40
2018-09-04T09:30:21.522Z,55.90
2018-09-04T09:35:23.662Z,56.70
2018-09-04T09:40:25.821Z,57.90
2018-09-04T09:45:27.978Z,57.50
2018-09-04T09:50:30.308Z,57.80
2018-09-04T09:55:32.585Z,59.00
2018-09-04T10:00:40.631Z,56.80
2018-09-04T10:05:43.275Z,55.00
2018-09-04T10:10:45.646Z,54.40
2018-09-04T10:15:47.890Z,55.10
2018-09-04T10:20:50.043Z,50.80
2018-09-04T10:25:53.258Z,49.70
2018-09-04T10:30:55.923Z,49.50
2018-09-04T10:35:58.187Z,48.30
2018-09-04T10:41:01.494Z,49.30
2018-09-04T10:46:08.073Z,49.20
2018-09-04T10:51:10.230Z,48.40
2018-09-04T10:56:12.480Z,50.60
2018-09-04T11:01:14.879Z,50.60
2018-09-04T11:06:18.089Z,50.90
2018-09-04T11:11:20.273Z,53.70
2018-09-04T11:16:22.468Z,52.90
2018-09-04T11:21:24.840Z,51.50
2018-09-04T11:26:27.073Z,51.60
2018-09-04T11:31:29.426Z,50.80
2018-09-04T11:36:32.634Z,50.90
2018-09-04T11:41:36.204Z,51.40
2018-09-04T11:46:39.819Z,49.20
2018-09-04T11:51:42.102Z,51.40
2018-09-04T11:56:44.972Z,52.50
2018-09-04T12:01:51.229Z,51.80
2018-09-04T12:06:53.725Z,50.30
2018-09-04T12:11:56.198Z,48.00
2018-09-04T12:16:58.386Z,49.50
2018-09-04T12:22:01.071Z,48.70
2018-09-04T12:27:04.110Z,48.10
2018-09-04T12:32:06.581Z,49.40
2018-09-04T12:37:08.793Z,47.90
2018-09-04T12:42:10.973Z,47.50
2018-09-04T12:47:13.985Z,46.70
2018-09-04T12:52:16.992Z,47.90
2018-09-04T12:57:20.031Z,45.90
2018-09-04T13:02:22.361Z,44.90
2018-09-04T13:07:24.518Z,44.20
2018-09-04T13:12:27.425Z,44.20
2018-09-04T13:17:30.267Z,43.10
2018-09-04T13:22:33.302Z,42.50
2018-09-04T13:27:35.462Z,43.20
2018-09-04T13:32:38.107Z,44.10
2018-09-04T13:37:40.430Z,44.90
2018-09-04T13:42:42.968Z,45.70
2018-09-04T13:47:45.409Z,43.50
2018-09-04T13:52:47.742Z,43.80
2018-09-04T13:57:50.013Z,44.40
2018-09-04T14:02:52.363Z,43.80
2018-09-04T14:07:54.802Z,43.40
2018-09-04T14:12:57.546Z,43.30
2018-09-04T14:18:01.813Z,43.70
2018-09-04T14:23:04.181Z,43.10
2018-09-04T14:28:07.436Z,42.50
2018-09-04T14:33:09.914Z,42.40
2018-09-04T14:38:12.394Z,42.00
2018-09-04T14:43:14.625Z,42.70
2018-09-04T14:48:16.772Z,42.60
2018-09-04T14:53:18.990Z,41.90
2018-09-04T14:58:21.331Z,41.90
2018-09-04T15:03:23.808Z,42.60
2018-09-04T15:08:26.382Z,43.20
2018-09-04T15:13:31.533Z,43.50
2018-09-04T15:18:33.861Z,42.80
2018-09-04T15:23:36.265Z,42.60
2018-09-04T15:28:39.729Z,42.50
2018-09-04T15:33:42.194Z,42.50
2018-09-04T15:38:44.766Z,42.60
2018-09-04T15:43:47.446Z,42.60
2018-09-04T15:48:55.491Z,43.00
2018-09-04T15:53:58.099Z,43.50
2018-09-04T15:59:00.550Z,43.10
2018-09-04T16:04:02.706Z,43.40
2018-09-04T16:09:05.381Z,44.10
2018-09-04T16:14:07.687Z,44.20
2018-09-04T16:19:10.081Z,43.30
2018-09-04T16:24:12.528Z,43.30
2018-09-04T16:29:14.826Z,43.30
2018-09-04T16:34:17.283Z,44.40
2018-09-04T16:39:19.583Z,46.00
2018-09-04T16:44:21.870Z,46.30
2018-09-04T16:49:25.283Z,46.60
2018-09-04T16:54:27.917Z,48.30
2018-09-04T16:59:30.260Z,46.00
2018-09-04T17:04:32.569Z,46.30
2018-09-04T17:09:34.757Z,47.00
2018-09-04T17:14:36.890Z,47.10
2018-09-04T17:19:39.062Z,47.80
2018-09-04T17:24:41.227Z,47.90
2018-09-04T17:30:15.214Z,48.30
2018-09-04T17:35:17.774Z,51.00
2018-09-04T17:40:20.002Z,52.30
2018-09-04T17:45:28.887Z,53.40
2018-09-04T17:50:31.215Z,54.90
2018-09-04T17:55:33.358Z,54.40
2018-09-04T18:00:35.700Z,55.80
2018-09-04T18:05:38.421Z,56.20
2018-09-04T18:10:40.733Z,57.10
2018-09-04T18:15:42.896Z,58.10
2018-09-04T18:20:45.034Z,59.40
2018-09-04T18:25:47.269Z,60.60
2018-09-04T18:30:49.671Z,61.10
2018-09-04T18:35:51.855Z,61.50
2018-09-04T18:40:54.896Z,61.70
2018-09-04T18:45:57.165Z,61.50
2018-09-04T18:50:59.438Z,61.90
2018-09-04T18:56:01.598Z,61.80
2018-09-04T19:01:04.112Z,61.90
2018-09-04T19:06:06.343Z,62.30
2018-09-04T19:11:08.664Z,62.60
2018-09-04T19:16:10.885Z,62.40
2018-09-04T19:21:13.019Z,61.60
2018-09-04T19:26:15.398Z,62.80
2018-09-04T19:31:17.913Z,63.50
2018-09-04T19:36:21.825Z,64.80
2018-09-04T19:41:24.238Z,64.10
2018-09-04T19:46:26.397Z,62.90
2018-09-04T19:51:28.550Z,62.20
2018-09-04T19:56:30.757Z,62.10
2018-09-04T20:01:34.158Z,62.30
2018-09-04T20:06:36.818Z,62.40
2018-09-04T20:11:39.474Z,62.40
2018-09-04T20:16:42.576Z,63.30
2018-09-04T20:21:45.539Z,63.40
2018-09-04T20:26:48.018Z,63.40
2018-09-04T20:31:50.341Z,63.40
2018-09-04T20:36:53.665Z,63.60
2018-09-04T20:41:56.212Z,64.10
2018-09-04T20:47:00.129Z,64.30
2018-09-04T20:52:02.446Z,64.50
2018-09-04T20:57:39.766Z,64.40
2018-09-04T21:02:54.717Z,64.50
2018-09-04T21:08:15.237Z,65.60
2018-09-04T21:13:18.503Z,65.80
2018-09-04T21:18:23.389Z,66.00
2018-09-04T21:23:27.367Z,66.80
2018-09-04T21:28:29.545Z,66.90
2018-09-04T21:33:33.733Z,66.70
2018-09-04T21:38:37.538Z,68.50
2018-09-04T21:43:41.822Z,69.80
2018-09-04T21:48:45.389Z,69.50
2018-09-04T21:53:49.792Z,69.00
2018-09-04T21:58:52.173Z,68.90
2018-09-04T22:03:54.310Z,69.10
2018-09-04T22:08:56.711Z,69.80
2018-09-04T22:13:59.149Z,70.20
2018-09-04T22:19:01.332Z,70.10
2018-09-04T22:24:03.514Z,70.00
2018-09-04T22:29:07.476Z,71.40
2018-09-04T22:34:09.816Z,72.80
2018-09-04T22:39:12.462Z,73.40
2018-09-04T22:44:14.782Z,72.20
2018-09-04T22:49:16.989Z,72.80
2018-09-04T22:54:19.277Z,73.00
2018-09-04T22:59:21.433Z,73.00
2018-09-04T23:04:24.149Z,73.70
2018-09-04T23:09:29.316Z,74.30
2018-09-04T23:14:33.445Z,75.30
2018-09-04T23:19:37.548Z,75.20
2018-09-04T23:24:41.643Z,73.90
2018-09-04T23:29:45.903Z,73.80
2018-09-04T23:34:48.402Z,73.10
2018-09-04T23:39:50.561Z,73.90
2018-09-04T23:44:53.409Z,74.20
2018-09-04T23:49:56.974Z,74.70
2018-09-04T23:55:00.321Z,74.80
